createdAt,value
2023-01-27T00:04:27.649Z,4092.7
2023-01-27T00:10:04.028Z,4092.9
2023-01-27T00:15:39.737Z,4093.2
2023-01-27T00:21:14.803Z,4092.5
2023-01-27T00:26:49.927Z,4088.7
2023-01-27T00:32:25.422Z,4091.7
2023-01-27T00:38:02.371Z,4091.2
2023-01-27T00:43:37.764Z,4090.7
2023-01-27T00:49:25.931Z,4088.8
2023-01-27T00:55:11.060Z,4089.3
2023-01-27T01:00:58.178Z,4088
2023-01-27T01:06:36.240Z,4086.5
2023-01-27T01:12:11.487Z,4089
2023-01-27T01:17:47.786Z,4092.7
2023-01-27T01:23:23.367Z,4086.7
2023-01-27T01:28:58.688Z,4087.3
2023-01-27T01:35:01.188Z,4089.8
2023-01-27T01:40:38.942Z,4086.8
2023-01-27T01:46:15.333Z,4085.8
2023-01-27T01:51:52.605Z,4087
2023-01-27T01:57:27.965Z,4085.7
2023-01-27T02:03:03.577Z,4084.5
2023-01-27T02:09:03.289Z,4083.8
2023-01-27T02:14:59.540Z,4085.3
2023-01-27T02:21:25.994Z,4084.3
2023-01-27T02:27:22.456Z,4081.5
2023-01-27T02:32:57.786Z,4083.8
2023-01-27T02:38:32.718Z,4083.1
2023-01-27T02:44:08.230Z,4085.3
2023-01-27T02:49:52.219Z,4085.2
2023-01-27T02:55:28.666Z,4086.3
2023-01-27T03:01:06.091Z,4082.6
2023-01-27T03:06:42.461Z,4083
2023-01-27T03:12:18.032Z,4083.6
2023-01-27T03:17:54.556Z,4084.3
2023-01-27T03:23:30.370Z,4081.1
2023-01-27T03:29:08.314Z,4080.1
2023-01-27T03:34:43.526Z,4078.8
2023-01-27T03:40:19.519Z,4079.3
2023-01-27T03:46:15.264Z,4081.5
2023-01-27T03:51:50.706Z,4080.6
2023-01-27T03:57:26.212Z,4080
2023-01-27T04:03:03.629Z,4076.4
2023-01-27T04:08:39.165Z,4079
2023-01-27T04:14:28.907Z,4076.3
2023-01-27T04:20:04.285Z,4078.1
2023-01-27T04:25:39.929Z,4075.4
2023-01-27T04:31:17.511Z,4074.6
2023-01-27T04:36:58.983Z,4075.6
2023-01-27T04:42:37.573Z,4077.5
2023-01-27T04:48:17.004Z,4080.1
2023-01-27T04:54:13.705Z,4075.9
2023-01-27T04:59:52.669Z,4074.1
2023-01-27T05:05:31.073Z,4073.8
2023-01-27T05:11:06.036Z,4076.1
2023-01-27T05:16:42.065Z,4072.3
2023-01-27T05:22:17.381Z,4074.6
2023-01-27T05:27:56.642Z,4075.8
2023-01-27T05:33:32.069Z,4073.9
2023-01-27T05:39:10.364Z,4073.6
2023-01-27T05:44:45.514Z,4071.1
2023-01-27T05:50:21.899Z,4073.8
2023-01-27T05:55:57.217Z,4071.6
2023-01-27T06:01:33.791Z,4071.9
2023-01-27T06:07:08.957Z,4072.8
2023-01-27T06:12:43.985Z,4070.8
2023-01-27T06:18:18.991Z,4071.4
2023-01-27T06:24:00.354Z,4071.6
2023-01-27T06:29:41.586Z,4072.6
2023-01-27T06:35:20.065Z,4070.4
2023-01-27T06:40:56.580Z,4070.1
2023-01-27T06:46:32.897Z,4069.2
2023-01-27T06:52:11.286Z,4069.7
2023-01-27T06:57:52.092Z,4070.8
2023-01-27T07:03:29.057Z,4068.1
2023-01-27T07:09:03.951Z,4069.6
2023-01-27T07:14:45.038Z,4065.6
2023-01-27T07:20:40.977Z,4066.9
2023-01-27T07:26:37.590Z,4065.7
2023-01-27T07:32:20.148Z,4067.1
2023-01-27T07:38:02.830Z,4063.7
2023-01-27T07:43:38.230Z,4065.4
2023-01-27T07:49:13.152Z,4068.7
2023-01-27T07:54:49.582Z,4063.6
2023-01-27T08:00:27.982Z,4062.5
2023-01-27T08:06:03.044Z,4063.9
2023-01-27T08:12:24.840Z,4065.2
2023-01-27T08:18:00.351Z,4078.8
2023-01-27T08:23:36.684Z,4080.8
2023-01-27T08:29:29.594Z,4085.2
2023-01-27T08:35:08.864Z,4076.8
2023-01-27T08:40:43.672Z,4082.8
2023-01-27T08:46:40.540Z,4083
2023-01-27T08:52:17.000Z,4082.8
2023-01-27T08:57:52.924Z,4086.2
2023-01-27T09:03:28.272Z,4087.7
2023-01-27T09:09:03.472Z,4076.8
2023-01-27T09:14:47.563Z,4079.6
2023-01-27T09:20:29.651Z,4083.3
2023-01-27T09:26:06.724Z,4078.3
2023-01-27T09:31:43.693Z,4078.5
2023-01-27T09:37:19.994Z,4078.6
2023-01-27T09:42:57.612Z,4093.5
2023-01-27T09:48:34.621Z,4096
2023-01-27T09:54:30.986Z,4088.2
2023-01-27T10:00:06.172Z,4095.5
2023-01-27T10:05:45.176Z,4093.5
2023-01-27T10:11:30.184Z,4093.9
2023-01-27T10:17:11.504Z,4110.5
2023-01-27T10:22:52.995Z,4127.5
2023-01-27T10:28:29.425Z,4106.1
2023-01-27T10:34:07.258Z,4098.9
2023-01-27T10:39:45.444Z,4099.6
2023-01-27T10:45:26.713Z,4109.1
2023-01-27T10:51:01.872Z,4115.5
2023-01-27T10:56:36.914Z,4107.6
2023-01-27T11:02:12.468Z,4106.8
2023-01-27T11:07:57.155Z,4119.2
2023-01-27T11:13:57.133Z,4121.2
2023-01-27T11:19:50.964Z,4110.5
2023-01-27T11:25:33.189Z,4151.7
2023-01-27T11:31:52.836Z,4138.8
2023-01-27T11:37:31.204Z,4159.9
2023-01-27T11:43:08.872Z,4139.6
2023-01-27T11:48:44.427Z,4129.7
2023-01-27T11:54:19.687Z,4118.8
2023-01-27T11:59:58.717Z,4117.7
2023-01-27T12:05:33.865Z,4118
2023-01-27T12:11:13.566Z,4131.2
2023-01-27T12:16:48.555Z,4123.2
2023-01-27T12:22:24.280Z,4135.2
2023-01-27T12:27:59.962Z,4116.3
2023-01-27T12:33:35.094Z,4118.8
2023-01-27T12:39:10.364Z,4116.6
2023-01-27T12:44:45.280Z,4115
2023-01-27T12:50:38.519Z,4108.6
2023-01-27T12:56:13.536Z,4121.8
2023-01-27T13:01:49.514Z,4117.8
2023-01-27T13:07:34.923Z,4121.2
2023-01-27T13:13:10.527Z,4113.5
2023-01-27T13:18:49.824Z,4120.7
2023-01-27T13:24:26.163Z,4121
2023-01-27T13:30:01.731Z,4128.2
2023-01-27T13:35:41.039Z,4129.5
2023-01-27T13:41:19.113Z,4125.4
2023-01-27T13:46:56.737Z,4128
2023-01-27T13:52:39.705Z,4141.4
2023-01-27T13:58:36.058Z,4145.1
2023-01-27T14:04:34.164Z,4128.7
2023-01-27T14:10:21.195Z,4124.4
2023-01-27T14:16:22.549Z,4123
2023-01-27T14:21:59.392Z,4118.7
2023-01-27T14:27:39.038Z,4124.7
2023-01-27T14:33:14.084Z,4121
2023-01-27T14:38:53.325Z,4115
2023-01-27T14:45:10.044Z,4105.9
2023-01-27T14:50:48.037Z,4112.1
2023-01-27T14:56:54.381Z,4113.8
2023-01-27T15:02:35.815Z,4114.1
2023-01-27T15:08:24.022Z,4115.8
2023-01-27T15:14:05.034Z,4120.2
2023-01-27T15:19:47.412Z,4112.8
2023-01-27T15:25:55.000Z,4107.8
2023-01-27T15:32:28.317Z,4099.9
2023-01-27T15:38:08.377Z,4100.1
2023-01-27T15:43:44.869Z,4099.7
2023-01-27T15:49:21.096Z,4101.9
2023-01-27T15:54:56.990Z,4100.1
2023-01-27T16:00:32.391Z,4099.7
2023-01-27T16:06:07.406Z,4096.9
2023-01-27T16:11:43.593Z,4096.9
2023-01-27T16:17:22.770Z,4096.7
2023-01-27T16:23:02.012Z,4094.2
2023-01-27T16:28:37.979Z,4095.9
2023-01-27T16:34:12.930Z,4094.4
2023-01-27T16:39:48.004Z,4095
2023-01-27T16:45:26.849Z,4095.4
2023-01-27T16:51:05.225Z,4092.4
2023-01-27T16:56:40.313Z,4093.2
2023-01-27T17:02:18.181Z,4091
2023-01-27T17:07:53.108Z,4092
2023-01-27T17:13:29.403Z,4092.2
2023-01-27T17:19:06.768Z,4094.4
2023-01-27T17:24:42.227Z,4094.5
2023-01-27T17:30:21.415Z,4092
2023-01-27T17:35:59.407Z,4090
2023-01-27T17:41:36.047Z,4089.8
2023-01-27T17:47:19.521Z,4090.4
2023-01-27T17:52:56.212Z,4089.5
2023-01-27T17:58:32.051Z,4088.3
2023-01-27T18:04:24.842Z,4089.2
2023-01-27T18:10:15.987Z,4089.5
2023-01-27T18:16:20.350Z,4092.4
2023-01-27T18:21:59.293Z,4090.9
2023-01-27T18:27:42.392Z,4091.5
2023-01-27T18:33:31.416Z,4095.4
2023-01-27T18:39:26.141Z,4088.5
2023-01-27T18:45:07.567Z,4092.9
2023-01-27T18:50:48.834Z,4094.9
2023-01-27T18:57:09.166Z,4090.2
2023-01-27T19:02:44.885Z,4092.4
2023-01-27T19:08:29.313Z,4092.2
2023-01-27T19:14:09.420Z,4094.2
2023-01-27T19:19:54.838Z,4090.7
2023-01-27T19:25:30.070Z,4092.7
2023-01-27T19:31:07.201Z,4094.4
2023-01-27T19:36:43.620Z,4091.7
2023-01-27T19:42:24.595Z,4093.7
2023-01-27T19:48:00.311Z,4090.5
2023-01-27T19:53:37.212Z,4091.4
2023-01-27T19:59:14.947Z,4093.7
2023-01-27T20:04:50.431Z,4091.9
2023-01-27T20:10:25.543Z,4088.3
2023-01-27T20:16:01.664Z,4088.3
2023-01-27T20:21:36.794Z,4090.2
2023-01-27T20:27:37.949Z,4092.2
2023-01-27T20:33:34.268Z,4089
2023-01-27T20:39:34.990Z,4089.5
2023-01-27T20:45:27.761Z,4088.2
2023-01-27T20:51:41.377Z,4088.2
2023-01-27T20:57:16.518Z,4089.8
2023-01-27T21:02:54.127Z,4088.2
2023-01-27T21:08:40.843Z,4087.2
2023-01-27T21:14:16.164Z,4085.8
2023-01-27T21:19:54.844Z,4086.3
2023-01-27T21:25:31.083Z,4086
2023-01-27T21:31:08.139Z,4083.8
2023-01-27T21:36:55.403Z,4086
2023-01-27T21:42:37.421Z,4087.7
2023-01-27T21:48:37.582Z,4080.5
2023-01-27T21:54:17.023Z,4085
2023-01-27T22:00:03.510Z,4083.6
2023-01-27T22:05:38.820Z,4085.5
2023-01-27T22:11:14.198Z,4085.3
2023-01-27T22:16:49.548Z,4086.3
2023-01-27T22:22:29.226Z,4084
2023-01-27T22:28:04.468Z,4082.3
2023-01-27T22:33:39.950Z,4083
2023-01-27T22:40:08.669Z,4082.6
2023-01-27T22:45:45.258Z,4084.2
2023-01-27T22:51:41.549Z,4082.1
2023-01-27T22:57:16.887Z,4081.5
2023-01-27T23:02:54.021Z,4085.7
2023-01-27T23:08:41.283Z,4084.7
2023-01-27T23:14:24.297Z,4079.6
2023-01-27T23:20:06.769Z,4080.6
2023-01-27T23:26:03.070Z,4078.3
2023-01-27T23:31:58.841Z,4079.3
2023-01-27T23:37:34.590Z,4078.6
2023-01-27T23:43:09.843Z,4079.3
2023-01-27T23:49:07.397Z,4074.1
2023-01-27T23:54:40.549Z,4075.1
